Time;durP1;ratioP1;P1;durP2;ratioP2;P2;SDS_P1;SDS_P2;PMS_P1;PMS_P2;Temp;Humidity;BMP_temperature;BMP_pressure;BME280_temperature;BME280_humidity;BME280_pressure;Samples;Min_cycle;Max_cycle;Signal;HPM_P1;HPM_P2
2021/08/05 00:00:42;;;;;;;10.00;7.00;;;;;;;;;;5026880;28;20230;-73
2021/08/05 00:03:07;;;;;;;8.30;7.38;;;;;;;;;;5014614;28;20196;-72
2021/08/05 00:05:33;;;;;;;8.02;6.78;;;;;;;;;;5017761;28;20696;-72
2021/08/05 00:07:58;;;;;;;7.90;6.70;;;;;;;;;;5011955;28;20198;-72
2021/08/05 00:10:24;;;;;;;8.10;7.28;;;;;;;;;;5027355;28;20174;-72
2021/08/05 00:12:50;;;;;;;7.78;6.97;;;;;;;;;;5013995;28;20182;-72
2021/08/05 00:15:15;;;;;;;7.32;6.63;;;;;;;;;;5023914;28;20232;-70
2021/08/05 00:17:40;;;;;;;7.65;6.45;;;;;;;;;;5014323;28;20723;-72
2021/08/05 00:20:07;;;;;;;8.60;7.47;;;;;;;;;;5033237;28;20210;-73
2021/08/05 00:22:32;;;;;;;8.88;7.43;;;;;;;;;;5014481;28;20202;-72
2021/08/05 00:24:58;;;;;;;8.77;7.38;;;;;;;;;;5017997;28;20633;-73
2021/08/05 00:27:24;;;;;;;8.57;7.78;;;;;;;;;;5021648;28;20193;-72
2021/08/05 00:29:49;;;;;;;7.88;7.07;;;;;;;;;;5025126;28;20181;-72
2021/08/05 00:32:15;;;;;;;7.75;6.82;;;;;;;;;;5023917;28;20190;-72
2021/08/05 00:34:40;;;;;;;7.53;6.82;;;;;;;;;;5021857;28;20285;-72
2021/08/05 00:37:05;;;;;;;8.65;7.32;;;;;;;;;;5020977;28;20213;-72
2021/08/05 00:39:31;;;;;;;9.73;7.18;;;;;;;;;;5024276;28;20190;-73
2021/08/05 00:41:56;;;;;;;10.45;6.68;;;;;;;;;;5022129;28;20214;-72
2021/08/05 00:44:21;;;;;;;9.07;7.40;;;;;;;;;;5018943;28;20186;-72
2021/08/05 00:46:47;;;;;;;7.65;6.85;;;;;;;;;;5025347;28;20174;-72
2021/08/05 00:49:12;;;;;;;7.70;6.90;;;;;;;;;;5023794;28;20216;-72
2021/08/05 00:51:38;;;;;;;9.15;7.00;;;;;;;;;;5025931;28;20205;-72
2021/08/05 00:54:04;;;;;;;9.23;8.20;;;;;;;;;;5018955;28;20225;-72
2021/08/05 00:56:30;;;;;;;7.75;6.93;;;;;;;;;;5021879;28;20236;-72
2021/08/05 00:58:55;;;;;;;8.73;7.22;;;;;;;;;;5028862;28;20225;-72
2021/08/05 01:01:25;;;;;;;8.05;7.25;;;;;;;;;;5015739;28;20235;-72
2021/08/05 01:03:53;;;;;;;7.53;6.70;;;;;;;;;;5020910;28;20257;-72
2021/08/05 01:06:37;;;;;;;8.30;7.18;;;;;;;;;;5012921;28;20197;-72
2021/08/05 01:09:14;;;;;;;9.13;6.93;;;;;;;;;;5027544;28;20185;-72
2021/08/05 01:11:48;;;;;;;10.95;7.18;;;;;;;;;;5013634;28;20213;-72
2021/08/05 01:14:18;;;;;;;8.00;7.03;;;;;;;;;;5020982;28;20197;-72
2021/08/05 01:16:46;;;;;;;8.38;7.20;;;;;;;;;;5020606;28;20606;-72
2021/08/05 01:19:26;;;;;;;10.02;7.47;;;;;;;;;;5023655;28;20190;-72
2021/08/05 01:22:10;;;;;;;7.80;7.05;;;;;;;;;;5018415;28;20178;-72
2021/08/05 01:24:37;;;;;;;8.93;7.28;;;;;;;;;;5026407;28;20182;-72
2021/08/05 01:27:04;;;;;;;9.60;7.70;;;;;;;;;;5012344;28;20182;-72
2021/08/05 01:29:37;;;;;;;11.93;7.43;;;;;;;;;;5020912;28;20720;-72
2021/08/05 01:32:05;;;;;;;10.40;7.65;;;;;;;;;;5008476;28;20186;-72
2021/08/05 01:34:32;;;;;;;9.75;7.57;;;;;;;;;;5024844;28;20202;-72
2021/08/05 01:36:58;;;;;;;9.35;8.45;;;;;;;;;;5020527;28;20763;-72
2021/08/05 01:39:24;;;;;;;11.23;7.90;;;;;;;;;;5024361;28;20191;-72
2021/08/05 01:41:50;;;;;;;8.55;7.70;;;;;;;;;;5023063;28;20186;-72
2021/08/05 01:44:16;;;;;;;8.27;7.40;;;;;;;;;;5021701;28;20182;-72
2021/08/05 01:46:43;;;;;;;9.25;7.22;;;;;;;;;;5016053;28;21960;-71
2021/08/05 01:49:09;;;;;;;8.55;7.25;;;;;;;;;;5022920;28;20228;-72
2021/08/05 01:51:35;;;;;;;8.65;7.80;;;;;;;;;;5031345;28;20217;-71
2021/08/05 01:54:01;;;;;;;9.05;7.60;;;;;;;;;;5016772;28;20209;-72
2021/08/05 01:56:27;;;;;;;10.10;7.72;;;;;;;;;;5022438;28;21035;-72
2021/08/05 01:58:55;;;;;;;8.68;7.30;;;;;;;;;;5014973;28;20320;-72
2021/08/05 02:01:20;;;;;;;10.52;8.30;;;;;;;;;;5027925;28;20175;-72
2021/08/05 02:03:58;;;;;;;10.07;7.72;;;;;;;;;;5012450;28;20194;-72
2021/08/05 02:06:25;;;;;;;12.45;8.13;;;;;;;;;;5021734;28;20542;-72
2021/08/05 02:09:00;;;;;;;10.65;8.32;;;;;;;;;;5014128;28;20227;-72
2021/08/05 02:11:34;;;;;;;11.10;8.70;;;;;;;;;;5023828;28;20204;-72
2021/08/05 02:14:01;;;;;;;9.15;8.25;;;;;;;;;;5014757;28;20248;-72
2021/08/05 02:16:27;;;;;;;9.77;8.77;;;;;;;;;;5024637;28;20562;-72
2021/08/05 02:18:54;;;;;;;9.55;8.50;;;;;;;;;;5015863;28;20206;-72
2021/08/05 02:21:22;;;;;;;12.20;9.18;;;;;;;;;;5021446;28;20711;-72
2021/08/05 02:23:50;;;;;;;15.10;9.52;;;;;;;;;;5015532;28;20186;-72
2021/08/05 02:26:16;;;;;;;9.98;9.00;;;;;;;;;;5023374;28;20178;-72
2021/08/05 02:28:41;;;;;;;12.55;8.75;;;;;;;;;;5016602;28;20186;-72
2021/08/05 02:31:08;;;;;;;9.93;8.93;;;;;;;;;;5028260;28;20174;-72
2021/08/05 02:33:35;;;;;;;14.32;9.07;;;;;;;;;;5022377;28;20182;-72
2021/08/05 02:36:01;;;;;;;10.43;8.88;;;;;;;;;;5018429;28;20185;-72
2021/08/05 02:38:27;;;;;;;9.90;8.98;;;;;;;;;;5021794;28;20201;-72
2021/08/05 02:40:54;;;;;;;10.75;9.30;;;;;;;;;;5019692;28;20671;-72
2021/08/05 02:43:23;;;;;;;11.65;9.88;;;;;;;;;;5054070;28;20643;-71
2021/08/05 02:45:50;;;;;;;11.02;9.30;;;;;;;;;;5018831;28;20201;-71
2021/08/05 02:48:16;;;;;;;10.20;9.00;;;;;;;;;;5023685;28;20177;-72
2021/08/05 02:50:42;;;;;;;11.30;9.95;;;;;;;;;;5017939;28;20198;-72
2021/08/05 02:53:08;;;;;;;12.43;9.15;;;;;;;;;;5022754;28;20197;-72
2021/08/05 02:55:34;;;;;;;11.10;9.30;;;;;;;;;;5013308;28;20205;-72
2021/08/05 02:58:00;;;;;;;11.88;9.85;;;;;;;;;;5020542;28;20297;-72
2021/08/05 03:00:25;;;;;;;12.00;9.32;;;;;;;;;;5007130;28;20757;-72
2021/08/05 03:02:51;;;;;;;11.10;10.00;;;;;;;;;;5015896;28;20189;-72
2021/08/05 03:05:18;;;;;;;11.13;9.38;;;;;;;;;;5015252;28;20198;-72
2021/08/05 03:07:43;;;;;;;10.38;9.27;;;;;;;;;;5010604;28;20179;-72
2021/08/05 03:10:12;;;;;;;11.55;9.05;;;;;;;;;;5023627;28;20204;-72
2021/08/05 03:12:37;;;;;;;12.05;10.02;;;;;;;;;;5017588;28;20181;-72
2021/08/05 03:15:03;;;;;;;12.57;9.52;;;;;;;;;;5023737;28;20193;-72
2021/08/05 03:17:28;;;;;;;13.02;10.00;;;;;;;;;;5018931;28;20204;-72
2021/08/05 03:19:54;;;;;;;12.43;9.35;;;;;;;;;;5015878;28;20245;-72
2021/08/05 03:22:19;;;;;;;13.23;10.70;;;;;;;;;;5019350;28;20572;-72
2021/08/05 03:24:44;;;;;;;10.70;9.63;;;;;;;;;;5026357;28;20288;-72
2021/08/05 03:27:11;;;;;;;14.70;10.98;;;;;;;;;;5018756;28;20185;-72
2021/08/05 03:29:37;;;;;;;12.63;10.50;;;;;;;;;;5023703;28;20464;-71
2021/08/05 03:32:03;;;;;;;12.73;10.30;;;;;;;;;;5016391;28;20194;-72
2021/08/05 03:34:28;;;;;;;12.25;9.80;;;;;;;;;;5022952;28;20247;-72
2021/08/05 03:36:54;;;;;;;11.30;9.93;;;;;;;;;;5039651;28;20213;-72
2021/08/05 03:39:19;;;;;;;13.60;10.57;;;;;;;;;;5018102;28;20189;-72
2021/08/05 03:41:45;;;;;;;14.65;10.95;;;;;;;;;;5023843;28;20651;-72
2021/08/05 03:44:10;;;;;;;13.75;10.55;;;;;;;;;;5014271;28;20189;-72
2021/08/05 03:46:36;;;;;;;17.92;10.73;;;;;;;;;;5026739;28;20616;-72
2021/08/05 03:49:01;;;;;;;12.77;10.75;;;;;;;;;;5009262;28;20182;-72
2021/08/05 03:51:27;;;;;;;14.65;11.02;;;;;;;;;;5022178;28;20190;-72
2021/08/05 03:53:52;;;;;;;14.13;11.00;;;;;;;;;;5031045;28;20223;-72
2021/08/05 03:56:18;;;;;;;13.93;11.38;;;;;;;;;;5021450;28;20187;-72
2021/08/05 03:58:43;;;;;;;12.52;11.25;;;;;;;;;;5021628;28;20241;-72
2021/08/05 04:01:08;;;;;;;13.80;12.05;;;;;;;;;;5021652;28;20705;-72
2021/08/05 04:03:34;;;;;;;14.15;11.20;;;;;;;;;;5021124;28;20650;-72
2021/08/05 04:06:00;;;;;;;16.13;11.88;;;;;;;;;;5022397;28;20254;-71
2021/08/05 04:08:25;;;;;;;14.13;12.10;;;;;;;;;;5028897;28;20198;-72
2021/08/05 04:10:51;;;;;;;15.90;12.43;;;;;;;;;;5018833;28;20235;-72
2021/08/05 04:13:17;;;;;;;14.02;12.35;;;;;;;;;;5023529;28;20201;-72
2021/08/05 04:15:43;;;;;;;15.32;12.73;;;;;;;;;;5025141;28;20200;-72
2021/08/05 04:18:08;;;;;;;20.77;12.07;;;;;;;;;;5031068;28;20210;-72
2021/08/05 04:20:34;;;;;;;15.07;12.75;;;;;;;;;;5022740;28;20194;-72
2021/08/05 04:22:59;;;;;;;14.65;12.70;;;;;;;;;;5038190;28;20201;-72
2021/08/05 04:25:25;;;;;;;15.00;13.02;;;;;;;;;;5022016;28;20182;-72
2021/08/05 04:27:50;;;;;;;14.32;12.45;;;;;;;;;;5027369;28;20305;-72
2021/08/05 04:30:16;;;;;;;16.35;13.48;;;;;;;;;;5020065;28;20186;-72
2021/08/05 04:32:41;;;;;;;15.05;12.45;;;;;;;;;;5024008;28;20191;-72
2021/08/05 04:35:09;;;;;;;15.93;12.93;;;;;;;;;;5016322;28;20209;-73
2021/08/05 04:37:34;;;;;;;15.63;12.38;;;;;;;;;;5023988;28;20210;-72
2021/08/05 04:40:00;;;;;;;20.55;13.27;;;;;;;;;;5028497;28;20213;-72
2021/08/05 04:42:25;;;;;;;12.13;10.77;;;;;;;;;;5022688;28;20236;-72
2021/08/05 04:44:51;;;;;;;14.73;13.20;;;;;;;;;;5027923;28;20547;-72
2021/08/05 04:47:16;;;;;;;14.13;12.63;;;;;;;;;;5013000;28;20183;-71
2021/08/05 04:49:41;;;;;;;15.20;12.80;;;;;;;;;;5022561;28;20182;-71
2021/08/05 04:52:07;;;;;;;13.88;12.38;;;;;;;;;;5014352;28;20187;-71
2021/08/05 04:54:34;;;;;;;14.00;12.23;;;;;;;;;;5027543;28;20204;-71
2021/08/05 04:57:00;;;;;;;14.57;11.77;;;;;;;;;;5015698;28;20305;-71
2021/08/05 04:59:26;;;;;;;13.48;11.18;;;;;;;;;;5025161;28;20730;-71
2021/08/05 05:01:51;;;;;;;14.80;11.55;;;;;;;;;;5007091;28;20197;-71
2021/08/05 05:04:16;;;;;;;14.50;12.65;;;;;;;;;;5022711;28;20712;-71
2021/08/05 05:06:42;;;;;;;15.38;12.93;;;;;;;;;;5015064;28;20179;-71
2021/08/05 05:09:07;;;;;;;14.02;12.40;;;;;;;;;;5026083;28;20188;-71
2021/08/05 05:11:32;;;;;;;16.70;12.23;;;;;;;;;;5024499;28;20646;-71
2021/08/05 05:13:58;;;;;;;12.65;11.35;;;;;;;;;;5022405;28;20267;-71
2021/08/05 05:16:24;;;;;;;14.63;12.40;;;;;;;;;;5022437;28;20225;-71
2021/08/05 05:18:49;;;;;;;15.27;12.55;;;;;;;;;;5031168;28;20214;-72
2021/08/05 05:21:15;;;;;;;16.40;12.57;;;;;;;;;;5018463;28;20187;-71
2021/08/05 05:23:40;;;;;;;15.48;12.43;;;;;;;;;;5014285;28;20241;-71
2021/08/05 05:26:06;;;;;;;13.90;12.50;;;;;;;;;;4324076;28;10021605;-71
2021/08/05 05:28:31;;;;;;;15.40;12.10;;;;;;;;;;5015826;28;20205;-72
2021/08/05 05:30:59;;;;;;;16.05;11.90;;;;;;;;;;5020677;28;20270;-71
2021/08/05 05:33:24;;;;;;;13.23;11.57;;;;;;;;;;5014458;28;20190;-71
2021/08/05 05:35:50;;;;;;;15.30;11.88;;;;;;;;;;5017157;28;20193;-71
2021/08/05 05:38:15;;;;;;;14.38;12.25;;;;;;;;;;5014554;28;20222;-71
2021/08/05 05:40:41;;;;;;;14.02;12.57;;;;;;;;;;5020539;28;20194;-72
2021/08/05 05:43:07;;;;;;;15.80;12.48;;;;;;;;;;5026767;28;20692;-71
2021/08/05 05:45:33;;;;;;;13.65;12.25;;;;;;;;;;5014152;28;20191;-71
2021/08/05 05:48:00;;;;;;;12.55;11.35;;;;;;;;;;5023765;28;20190;-72
2021/08/05 05:50:27;;;;;;;15.98;12.35;;;;;;;;;;5013347;28;20198;-72
2021/08/05 05:52:53;;;;;;;16.50;12.27;;;;;;;;;;5035158;28;20178;-71
2021/08/05 05:55:18;;;;;;;13.57;11.73;;;;;;;;;;5014287;28;20546;-71
2021/08/05 05:57:43;;;;;;;15.73;12.80;;;;;;;;;;5037711;28;20399;-71
2021/08/05 06:00:10;;;;;;;12.98;11.63;;;;;;;;;;5012834;28;20253;-71
2021/08/05 06:02:35;;;;;;;15.82;12.43;;;;;;;;;;5022808;28;20212;-71
2021/08/05 06:05:01;;;;;;;16.17;12.43;;;;;;;;;;5008503;28;20725;-71
2021/08/05 06:07:26;;;;;;;13.18;11.77;;;;;;;;;;5014932;28;21423;-71
2021/08/05 06:09:51;;;;;;;14.02;12.68;;;;;;;;;;5020891;28;20213;-71
2021/08/05 06:12:17;;;;;;;15.02;13.43;;;;;;;;;;5016205;28;20767;-71
2021/08/05 06:14:44;;;;;;;14.85;12.30;;;;;;;;;;5020063;28;20590;-71
2021/08/05 06:17:09;;;;;;;15.73;13.40;;;;;;;;;;5020232;28;20567;-71
2021/08/05 06:19:34;;;;;;;14.18;12.75;;;;;;;;;;5015965;28;20536;-71
2021/08/05 06:22:00;;;;;;;16.58;12.77;;;;;;;;;;5016264;28;20193;-71
2021/08/05 06:24:26;;;;;;;14.85;12.20;;;;;;;;;;5016492;28;20182;-70
2021/08/05 06:26:51;;;;;;;16.90;12.43;;;;;;;;;;5008394;28;20526;-70
2021/08/05 06:29:18;;;;;;;13.18;11.88;;;;;;;;;;5017123;28;20224;-70
2021/08/05 06:31:44;;;;;;;16.48;12.88;;;;;;;;;;5014539;28;20190;-71
2021/08/05 06:34:09;;;;;;;13.13;11.60;;;;;;;;;;5015842;28;20205;-71
2021/08/05 06:36:35;;;;;;;12.55;11.13;;;;;;;;;;5016437;28;20285;-71
2021/08/05 06:39:03;;;;;;;12.60;11.35;;;;;;;;;;5021788;28;20228;-71
2021/08/05 06:41:28;;;;;;;12.45;10.88;;;;;;;;;;5034665;28;20174;-71
2021/08/05 06:43:53;;;;;;;12.45;11.18;;;;;;;;;;5017717;28;20191;-71
2021/08/05 06:46:19;;;;;;;12.27;10.98;;;;;;;;;;5018610;28;20716;-71
2021/08/05 06:48:44;;;;;;;12.55;11.32;;;;;;;;;;5011888;28;20194;-71
2021/08/05 06:51:10;;;;;;;13.98;11.20;;;;;;;;;;5011988;28;20252;-71
2021/08/05 06:53:36;;;;;;;14.40;11.43;;;;;;;;;;5005799;28;20653;-71
2021/08/05 06:56:01;;;;;;;12.48;10.63;;;;;;;;;;5012972;28;20182;-71
2021/08/05 06:58:28;;;;;;;12.77;11.50;;;;;;;;;;5005013;28;20586;-72
2021/08/05 07:00:54;;;;;;;13.18;11.32;;;;;;;;;;5018671;28;20638;-71
2021/08/05 07:03:19;;;;;;;12.38;11.13;;;;;;;;;;5006012;28;20201;-71
2021/08/05 07:05:44;;;;;;;12.30;11.15;;;;;;;;;;5017326;28;20190;-71
2021/08/05 07:08:10;;;;;;;12.90;11.60;;;;;;;;;;5008248;28;20186;-72
2021/08/05 07:10:35;;;;;;;13.30;11.65;;;;;;;;;;5011886;28;20193;-71
2021/08/05 07:13:00;;;;;;;13.45;10.52;;;;;;;;;;5016011;28;20190;-71
2021/08/05 07:15:26;;;;;;;12.00;10.80;;;;;;;;;;5008743;28;20480;-71
2021/08/05 07:17:51;;;;;;;12.38;11.15;;;;;;;;;;5008945;28;20218;-71
2021/08/05 07:20:18;;;;;;;12.35;11.13;;;;;;;;;;5009681;28;20202;-71
2021/08/05 07:22:43;;;;;;;12.10;10.82;;;;;;;;;;5016467;28;21366;-71
2021/08/05 07:25:11;;;;;;;12.25;11.02;;;;;;;;;;5010445;28;20197;-71
2021/08/05 07:27:38;;;;;;;15.50;11.38;;;;;;;;;;5033669;28;20237;-71
2021/08/05 07:30:07;;;;;;;12.20;10.90;;;;;;;;;;5015978;28;20186;-71
2021/08/05 07:32:32;;;;;;;11.80;10.35;;;;;;;;;;5015112;28;20230;-71
2021/08/05 07:34:58;;;;;;;15.57;10.80;;;;;;;;;;5008959;28;20220;-72
2021/08/05 07:37:23;;;;;;;15.10;10.30;;;;;;;;;;5016854;28;20213;-71
2021/08/05 07:39:48;;;;;;;11.95;10.57;;;;;;;;;;5013671;28;20296;-71
2021/08/05 07:42:15;;;;;;;12.45;10.52;;;;;;;;;;5014994;28;20198;-71
2021/08/05 07:44:41;;;;;;;11.40;10.18;;;;;;;;;;5012672;28;20196;-72
2021/08/05 07:47:06;;;;;;;11.20;9.98;;;;;;;;;;5028291;28;20185;-71
2021/08/05 07:49:32;;;;;;;11.43;10.23;;;;;;;;;;5019760;28;20265;-72
2021/08/05 07:51:57;;;;;;;12.10;9.60;;;;;;;;;;5010749;28;20600;-71
2021/08/05 07:54:22;;;;;;;11.60;10.15;;;;;;;;;;5020815;28;20182;-71
2021/08/05 07:56:48;;;;;;;11.82;9.73;;;;;;;;;;5012222;28;20192;-70
2021/08/05 07:59:13;;;;;;;12.70;10.10;;;;;;;;;;5024790;28;20709;-71
2021/08/05 08:01:39;;;;;;;11.60;9.20;;;;;;;;;;5010547;28;20201;-71
2021/08/05 08:04:04;;;;;;;10.68;9.55;;;;;;;;;;5019198;28;20194;-71
2021/08/05 08:06:29;;;;;;;12.45;10.13;;;;;;;;;;5012815;28;20218;-71
2021/08/05 08:08:55;;;;;;;11.38;10.27;;;;;;;;;;5024893;28;20185;-71
2021/08/05 08:11:23;;;;;;;12.98;9.23;;;;;;;;;;5025756;28;20248;-71
2021/08/05 08:13:52;;;;;;;13.05;9.73;;;;;;;;;;5023380;28;20201;-71
2021/08/05 08:16:19;;;;;;;11.75;9.52;;;;;;;;;;5020652;28;20205;-71
2021/08/05 08:18:45;;;;;;;10.93;9.35;;;;;;;;;;5015810;28;20700;-71
2021/08/05 08:21:10;;;;;;;10.38;9.43;;;;;;;;;;5015588;28;20194;-71
2021/08/05 08:23:36;;;;;;;9.73;8.07;;;;;;;;;;5017761;28;20182;-71
2021/08/05 08:26:01;;;;;;;10.57;9.50;;;;;;;;;;5019611;28;21509;-71
2021/08/05 08:28:26;;;;;;;11.27;10.18;;;;;;;;;;5011105;28;20721;-71
2021/08/05 08:30:52;;;;;;;10.85;9.75;;;;;;;;;;5019628;28;20191;-71
2021/08/05 08:33:17;;;;;;;9.98;8.98;;;;;;;;;;5009031;28;20277;-68
2021/08/05 08:35:42;;;;;;;11.00;9.20;;;;;;;;;;5016035;28;20252;-69
2021/08/05 08:38:08;;;;;;;9.88;8.90;;;;;;;;;;5008693;28;20202;-72
2021/08/05 08:40:33;;;;;;;10.95;9.82;;;;;;;;;;5019519;28;20203;-71
2021/08/05 08:42:58;;;;;;;10.70;9.27;;;;;;;;;;5016303;28;20583;-70
2021/08/05 08:45:24;;;;;;;10.38;9.38;;;;;;;;;;5018642;28;20206;-69
2021/08/05 08:47:54;;;;;;;10.60;8.20;;;;;;;;;;5027164;28;20696;-69
2021/08/05 08:50:29;;;;;;;11.27;9.38;;;;;;;;;;5013899;28;20224;-70
2021/08/05 08:53:01;;;;;;;9.50;8.50;;;;;;;;;;5022636;28;20239;-70
2021/08/05 08:55:27;;;;;;;11.18;9.57;;;;;;;;;;5015508;28;20183;-70
2021/08/05 08:57:57;;;;;;;9.55;8.32;;;;;;;;;;5023632;28;20238;-69
2021/08/05 09:00:22;;;;;;;9.50;8.50;;;;;;;;;;5015147;28;20365;-70
2021/08/05 09:02:47;;;;;;;10.43;9.05;;;;;;;;;;5022299;28;20194;-70
2021/08/05 09:05:14;;;;;;;11.55;9.18;;;;;;;;;;5011271;28;20214;-70
2021/08/05 09:07:42;;;;;;;10.60;9.05;;;;;;;;;;5025985;28;20189;-70
2021/08/05 09:10:08;;;;;;;9.73;8.27;;;;;;;;;;5014370;28;20209;-70
2021/08/05 09:12:33;;;;;;;10.23;9.23;;;;;;;;;;5022273;28;20229;-69
2021/08/05 09:14:58;;;;;;;10.30;8.77;;;;;;;;;;5011876;28;20261;-70
2021/08/05 09:17:27;;;;;;;10.70;9.60;;;;;;;;;;5024146;28;20626;-70
2021/08/05 09:19:55;;;;;;;11.20;9.25;;;;;;;;;;5015343;28;20229;-70
2021/08/05 09:22:43;;;;;;;12.25;9.35;;;;;;;;;;5022809;28;20239;-69
2021/08/05 09:25:41;;;;;;;10.15;9.13;;;;;;;;;;5017256;28;20179;-69
2021/08/05 09:28:14;;;;;;;12.05;9.63;;;;;;;;;;5018107;28;20225;-70
2021/08/05 09:30:42;;;;;;;10.90;8.80;;;;;;;;;;5020398;28;20194;-69
2021/08/05 09:33:17;;;;;;;10.70;9.27;;;;;;;;;;5015792;28;20254;-69
2021/08/05 09:35:44;;;;;;;9.00;8.15;;;;;;;;;;5014810;28;20189;-73
2021/08/05 09:38:22;;;;;;;8.98;7.63;;;;;;;;;;5020682;28;20210;-69
2021/08/05 09:41:03;;;;;;;9.65;8.20;;;;;;;;;;5050607;28;20227;-71
2021/08/05 09:43:30;;;;;;;8.57;7.65;;;;;;;;;;5020840;28;20194;-71
2021/08/05 09:45:56;;;;;;;9.18;8.15;;;;;;;;;;5020295;28;20228;-71
2021/08/05 09:48:44;;;;;;;9.48;8.35;;;;;;;;;;5013033;28;20638;-71
2021/08/05 09:51:13;;;;;;;9.80;7.10;;;;;;;;;;5031178;28;20197;-70
2021/08/05 09:53:56;;;;;;;10.30;7.20;;;;;;;;;;5011350;28;20213;-70
2021/08/05 09:56:22;;;;;;;8.60;6.20;;;;;;;;;;4671215;28;10000624;-70
2021/08/05 09:58:48;;;;;;;8.05;7.25;;;;;;;;;;5044823;28;20271;-71
2021/08/05 10:01:15;;;;;;;7.72;6.93;;;;;;;;;;5020214;28;20300;-71
2021/08/05 10:03:41;;;;;;;10.32;7.22;;;;;;;;;;5041425;28;20183;-71
2021/08/05 10:06:07;;;;;;;9.15;7.85;;;;;;;;;;5016863;28;20232;-71
2021/08/05 10:08:37;;;;;;;8.50;7.57;;;;;;;;;;5012502;28;20194;-70
2021/08/05 10:11:04;;;;;;;7.93;7.13;;;;;;;;;;5014662;28;20198;-71
2021/08/05 10:13:30;;;;;;;8.75;7.18;;;;;;;;;;5009258;28;20211;-69
2021/08/05 10:15:56;;;;;;;7.00;5.90;;;;;;;;;;5012567;28;20201;-70
2021/08/05 10:18:29;;;;;;;7.88;6.05;;;;;;;;;;5004088;28;20213;-70
2021/08/05 10:21:04;;;;;;;8.30;6.90;;;;;;;;;;5017670;28;20200;-71
2021/08/05 10:23:30;;;;;;;8.27;7.07;;;;;;;;;;5004821;28;20203;-71
2021/08/05 10:25:59;;;;;;;8.57;6.25;;;;;;;;;;5015056;28;20194;-70
2021/08/05 10:28:25;;;;;;;6.32;5.72;;;;;;;;;;5011903;28;20215;-70
2021/08/05 10:30:53;;;;;;;7.28;5.15;;;;;;;;;;5012259;28;20975;-71
2021/08/05 10:33:19;;;;;;;7.53;5.97;;;;;;;;;;5016946;28;20186;-71
2021/08/05 10:35:49;;;;;;;7.30;6.03;;;;;;;;;;5007255;28;20577;-71
2021/08/05 10:38:22;;;;;;;7.97;5.40;;;;;;;;;;5028321;28;20204;-70
2021/08/05 10:40:49;;;;;;;7.28;6.47;;;;;;;;;;5017743;28;21134;-70
2021/08/05 10:43:15;;;;;;;10.23;6.80;;;;;;;;;;5027641;28;20228;-70
2021/08/05 10:45:41;;;;;;;8.57;6.95;;;;;;;;;;5016618;28;20215;-71
2021/08/05 10:48:08;;;;;;;7.97;7.28;;;;;;;;;;5022866;28;20634;-71
2021/08/05 10:50:40;;;;;;;8.02;7.22;;;;;;;;;;5015333;28;20179;-70
2021/08/05 10:53:06;;;;;;;8.90;6.97;;;;;;;;;;5016671;28;20881;-71
2021/08/05 10:55:38;;;;;;;9.20;6.25;;;;;;;;;;5010344;28;20191;-70
2021/08/05 10:58:07;;;;;;;8.40;6.97;;;;;;;;;;5024129;28;20287;-70
2021/08/05 11:00:51;;;;;;;7.00;6.30;;;;;;;;;;5004691;28;20217;-70
2021/08/05 11:03:31;;;;;;;7.88;5.50;;;;;;;;;;5020326;28;20276;-70
2021/08/05 11:05:58;;;;;;;8.30;6.75;;;;;;;;;;5008494;28;20209;-68
2021/08/05 11:08:25;;;;;;;7.63;5.55;;;;;;;;;;5021974;28;20681;-70
2021/08/05 11:11:19;;;;;;;7.05;6.45;;;;;;;;;;5013948;28;20290;-69
2021/08/05 11:13:45;;;;;;;7.05;6.35;;;;;;;;;;5019514;28;20260;-70
2021/08/05 11:16:10;;;;;;;10.60;6.32;;;;;;;;;;5013800;28;20186;-70
2021/08/05 11:18:35;;;;;;;7.43;6.72;;;;;;;;;;5022456;28;20297;-70
2021/08/05 11:21:04;;;;;;;9.68;6.70;;;;;;;;;;5008777;28;20186;-70
2021/08/05 11:23:32;;;;;;;6.68;5.50;;;;;;;;;;5021098;28;20190;-69
2021/08/05 11:25:57;;;;;;;6.97;6.30;;;;;;;;;;5013127;28;20260;-70
2021/08/05 11:28:27;;;;;;;9.55;7.18;;;;;;;;;;5010673;28;20213;-70
2021/08/05 11:31:07;;;;;;;8.25;6.78;;;;;;;;;;5019195;28;20182;-70
2021/08/05 11:33:35;;;;;;;7.68;6.35;;;;;;;;;;5016138;28;20197;-71
2021/08/05 11:36:22;;;;;;;5.93;5.28;;;;;;;;;;5020654;28;20197;-70
2021/08/05 11:39:03;;;;;;;5.50;5.00;;;;;;;;;;5011121;28;20304;-71
2021/08/05 11:41:53;;;;;;;7.70;6.78;;;;;;;;;;5017293;28;20186;-70
2021/08/05 11:44:29;;;;;;;7.72;6.93;;;;;;;;;;5016311;28;20218;-72
2021/08/05 11:47:29;;;;;;;8.32;6.22;;;;;;;;;;5021797;28;20170;-69
2021/08/05 11:50:06;;;;;;;7.85;6.05;;;;;;;;;;5020775;28;20230;-70
2021/08/05 11:52:35;;;;;;;6.25;4.95;;;;;;;;;;5010717;28;20268;-70
2021/08/05 11:55:34;;;;;;;6.72;5.57;;;;;;;;;;5022719;28;20182;-71
2021/08/05 11:58:03;;;;;;;6.68;5.50;;;;;;;;;;5007016;28;20233;-69
2021/08/05 12:00:31;;;;;;;8.68;5.00;;;;;;;;;;5020743;28;20198;-70
2021/08/05 12:03:03;;;;;;;5.13;3.80;;;;;;;;;;5013850;28;20190;-71
2021/08/05 12:05:37;;;;;;;3.83;3.10;;;;;;;;;;5011721;28;20209;-69
2021/08/05 12:08:02;;;;;;;4.72;3.22;;;;;;;;;;5016284;28;20182;-68
2021/08/05 12:10:30;;;;;;;3.40;3.00;;;;;;;;;;5005063;28;20549;-69
2021/08/05 12:13:03;;;;;;;6.80;3.72;;;;;;;;;;5019067;28;20202;-69
2021/08/05 12:15:37;;;;;;;3.33;3.03;;;;;;;;;;5011306;28;20262;-70
2021/08/05 12:18:08;;;;;;;5.80;4.00;;;;;;;;;;5019148;28;20206;-71
2021/08/05 12:20:44;;;;;;;3.70;3.40;;;;;;;;;;5018550;28;20209;-71
2021/08/05 12:23:19;;;;;;;4.55;4.15;;;;;;;;;;5022723;28;20657;-71
2021/08/05 12:26:00;;;;;;;5.70;3.97;;;;;;;;;;5015826;28;20182;-71
2021/08/05 12:28:27;;;;;;;5.00;4.35;;;;;;;;;;5023229;28;20197;-71
2021/08/05 12:30:58;;;;;;;6.20;4.80;;;;;;;;;;5021354;28;20601;-71
2021/08/05 12:33:31;;;;;;;5.93;4.75;;;;;;;;;;5022736;28;20205;-70
2021/08/05 12:36:14;;;;;;;6.45;5.13;;;;;;;;;;5018042;28;20650;-70
2021/08/05 12:38:51;;;;;;;5.82;4.53;;;;;;;;;;5022038;28;20216;-71
2021/08/05 12:41:34;;;;;;;6.80;4.85;;;;;;;;;;5011687;28;20877;-70
2021/08/05 12:44:20;;;;;;;6.07;3.75;;;;;;;;;;5027959;28;20178;-71
2021/08/05 12:46:47;;;;;;;3.63;2.67;;;;;;;;;;5017494;28;20194;-70
2021/08/05 12:49:15;;;;;;;6.75;2.67;;;;;;;;;;5028251;28;20185;-71
2021/08/05 12:51:41;;;;;;;3.28;2.97;;;;;;;;;;5015496;28;20202;-71
2021/08/05 12:54:17;;;;;;;3.33;2.72;;;;;;;;;;5024007;28;20196;-70
2021/08/05 12:56:44;;;;;;;3.20;2.80;;;;;;;;;;5007157;28;20220;-71
2021/08/05 12:59:10;;;;;;;3.28;2.97;;;;;;;;;;5025375;28;20247;-70
2021/08/05 13:01:36;;;;;;;4.10;3.22;;;;;;;;;;5015068;28;20196;-71
2021/08/05 13:04:02;;;;;;;3.72;3.08;;;;;;;;;;5022182;28;20512;-71
2021/08/05 13:06:52;;;;;;;5.13;2.90;;;;;;;;;;5013792;28;20194;-71
2021/08/05 13:09:18;;;;;;;3.60;3.30;;;;;;;;;;5018410;28;20178;-71
2021/08/05 13:11:43;;;;;;;4.05;3.00;;;;;;;;;;5011555;28;20587;-69
2021/08/05 13:14:32;;;;;;;3.40;2.92;;;;;;;;;;5019623;28;20194;-70
2021/08/05 13:17:15;;;;;;;3.80;2.33;;;;;;;;;;5016580;28;21127;-69
2021/08/05 13:19:51;;;;;;;2.78;2.58;;;;;;;;;;5020404;28;20191;-69
2021/08/05 13:22:19;;;;;;;2.60;2.40;;;;;;;;;;5007835;28;20197;-69
2021/08/05 13:24:58;;;;;;;3.70;2.97;;;;;;;;;;5019084;28;20236;-69
2021/08/05 13:27:24;;;;;;;2.95;2.65;;;;;;;;;;5013569;28;20277;-69
2021/08/05 13:29:51;;;;;;;3.65;2.25;;;;;;;;;;5023363;28;20273;-69
2021/08/05 13:32:22;;;;;;;3.47;2.78;;;;;;;;;;5021791;28;20575;-70
2021/08/05 13:35:08;;;;;;;3.67;2.88;;;;;;;;;;5011260;28;20222;-68
2021/08/05 13:37:35;;;;;;;3.97;2.65;;;;;;;;;;5022612;28;20202;-70
2021/08/05 13:40:07;;;;;;;5.57;3.25;;;;;;;;;;5010566;28;20195;-70
2021/08/05 13:42:37;;;;;;;3.00;2.80;;;;;;;;;;5026144;28;20206;-70
2021/08/05 13:45:04;;;;;;;3.47;3.17;;;;;;;;;;5010096;28;20673;-69
2021/08/05 13:47:29;;;;;;;4.13;3.60;;;;;;;;;;5016525;28;20211;-69
2021/08/05 13:49:55;;;;;;;3.38;3.08;;;;;;;;;;5010925;28;20270;-70
2021/08/05 13:52:20;;;;;;;4.80;3.15;;;;;;;;;;5026516;28;20261;-71
2021/08/05 13:54:46;;;;;;;3.45;3.15;;;;;;;;;;5013130;28;20194;-69
2021/08/05 13:57:12;;;;;;;3.80;3.38;;;;;;;;;;5019119;28;20276;-70
2021/08/05 13:59:38;;;;;;;3.92;3.17;;;;;;;;;;5010293;28;20603;-69
2021/08/05 14:02:04;;;;;;;5.47;3.53;;;;;;;;;;5021817;28;20185;-66
2021/08/05 14:04:29;;;;;;;3.92;3.53;;;;;;;;;;5012360;28;20182;-66
2021/08/05 14:06:55;;;;;;;3.70;3.35;;;;;;;;;;5018571;28;20174;-67
2021/08/05 14:09:21;;;;;;;3.28;2.97;;;;;;;;;;5016252;28;20190;-67
2021/08/05 14:11:46;;;;;;;3.10;2.83;;;;;;;;;;5027827;28;20182;-66
2021/08/05 14:14:12;;;;;;;7.32;3.42;;;;;;;;;;5016935;28;20645;-66
2021/08/05 14:16:44;;;;;;;5.07;3.40;;;;;;;;;;5016766;28;20201;-68
2021/08/05 14:19:13;;;;;;;4.65;4.10;;;;;;;;;;5020987;28;20230;-67
2021/08/05 14:21:41;;;;;;;5.50;3.78;;;;;;;;;;5011612;28;20193;-66
2021/08/05 14:24:06;;;;;;;5.22;4.25;;;;;;;;;;5018715;28;20198;-67
2021/08/05 14:26:31;;;;;;;5.82;3.88;;;;;;;;;;5018312;28;20560;-67
2021/08/05 14:28:57;;;;;;;7.45;4.10;;;;;;;;;;5021545;28;20185;-67
2021/08/05 14:31:22;;;;;;;4.70;4.28;;;;;;;;;;5014984;28;20185;-67
2021/08/05 14:33:48;;;;;;;5.30;4.63;;;;;;;;;;5024883;28;20267;-66
2021/08/05 14:36:14;;;;;;;4.60;4.20;;;;;;;;;;5007142;28;20186;-67